createdAt,value
2022-08-05T00:02:23.585Z,47.10
2022-08-05T00:04:55.231Z,15.37
2022-08-05T00:07:59.798Z,17.60
2022-08-05T00:10:11.519Z,16.10
2022-08-05T00:12:48.521Z,25.93
2022-08-05T00:15:56.349Z,16.47
2022-08-05T00:18:21.654Z,12.20
2022-08-05T00:20:50.058Z,16.40
2022-08-05T00:23:17.710Z,12.07
2022-08-05T00:26:05.601Z,12.90
2022-08-05T00:28:33.762Z,14.20
2022-08-05T00:31:04.442Z,13.00
2022-08-05T00:34:56.931Z,12.30
2022-08-05T00:37:09.766Z,14.23
2022-08-05T00:39:13.813Z,10.27
2022-08-05T00:41:51.838Z,11.20
2022-08-05T00:44:20.809Z,18.07
2022-08-05T00:46:54.308Z,12.77
2022-08-05T00:49:32.681Z,13.67
2022-08-05T00:52:00.903Z,15.37
2022-08-05T00:54:30.215Z,11.10
2022-08-05T00:56:58.169Z,12.60
2022-08-05T00:59:25.814Z,11.60
2022-08-05T01:02:03.762Z,13.30
2022-08-05T01:04:31.556Z,12.90
2022-08-05T01:06:59.666Z,20.60
2022-08-05T01:09:30.389Z,13.20
2022-08-05T01:12:09.124Z,14.43
2022-08-05T01:14:41.500Z,11.90
2022-08-05T01:17:13.106Z,13.93
2022-08-05T01:20:01.614Z,13.63
2022-08-05T01:22:36.543Z,15.33
2022-08-05T01:25:13.753Z,25.67
2022-08-05T01:28:01.104Z,14.87
2022-08-05T01:30:33.737Z,18.10
2022-08-05T01:33:04.220Z,13.37
2022-08-05T01:35:51.657Z,15.10
2022-08-05T01:38:26.830Z,16.17
2022-08-05T01:40:56.436Z,17.40
2022-08-05T01:43:28.303Z,19.53
2022-08-05T01:45:57.072Z,12.73
2022-08-05T01:48:25.157Z,26.10
2022-08-05T01:50:53.661Z,17.40
2022-08-05T01:53:55.214Z,16.73
2022-08-05T01:56:11.632Z,21.83
2022-08-05T01:58:45.462Z,14.17
2022-08-05T02:01:24.638Z,17.73
2022-08-05T02:03:54.548Z,18.93
2022-08-05T02:06:37.720Z,18.23
2022-08-05T02:09:06.543Z,18.67
2022-08-05T02:11:42.246Z,16.40
2022-08-05T02:14:18.742Z,18.20
2022-08-05T02:16:53.133Z,13.43
2022-08-05T02:19:24.417Z,13.13
2022-08-05T02:21:59.526Z,28.47
2022-08-05T02:24:29.245Z,14.27
2022-08-05T02:26:57.789Z,18.90
2022-08-05T02:29:59.735Z,17.93
2022-08-05T02:32:19.851Z,13.90
2022-08-05T02:34:54.684Z,13.93
2022-08-05T02:37:23.708Z,20.47
2022-08-05T02:39:54.552Z,15.70
2022-08-05T02:42:27.362Z,17.40
2022-08-05T02:44:58.295Z,19.10
2022-08-05T02:47:58.747Z,15.60
2022-08-05T02:50:18.150Z,16.73
2022-08-05T02:52:46.614Z,18.53
2022-08-05T02:55:17.618Z,15.27
2022-08-05T02:58:12.114Z,13.27
2022-08-05T03:00:45.983Z,24.77
2022-08-05T03:03:15.622Z,16.03
2022-08-05T03:06:54.924Z,15.50
2022-08-05T03:08:33.849Z,17.93
2022-08-05T03:11:54.671Z,13.33
2022-08-05T03:13:51.915Z,15.70
2022-08-05T03:16:32.162Z,17.23
2022-08-05T03:19:00.865Z,15.20
2022-08-05T03:21:33.164Z,10.57
2022-08-05T03:24:10.391Z,12.07
2022-08-05T03:26:41.596Z,22.83
2022-08-05T03:29:13.562Z,12.50
2022-08-05T03:31:56.825Z,13.47
2022-08-05T03:34:28.428Z,21.17
2022-08-05T03:36:56.620Z,12.93
2022-08-05T03:39:26.768Z,12.70
2022-08-05T03:41:56.312Z,19.40
2022-08-05T03:44:24.328Z,25.70
2022-08-05T03:46:53.476Z,15.33
2022-08-05T03:49:24.221Z,17.70
2022-08-05T03:52:38.977Z,23.50
2022-08-05T03:55:51.034Z,11.87
2022-08-05T03:57:41.552Z,13.03
2022-08-05T04:00:12.280Z,19.47
2022-08-05T04:02:51.969Z,17.00
2022-08-05T04:05:27.886Z,20.20
2022-08-05T04:08:02.133Z,11.23
2022-08-05T04:10:37.627Z,17.10
2022-08-05T04:13:06.357Z,16.03
2022-08-05T04:15:36.029Z,15.13
2022-08-05T04:18:07.821Z,15.70
2022-08-05T04:20:37.612Z,14.50
2022-08-05T04:23:12.453Z,18.67
2022-08-05T04:25:56.856Z,11.83
2022-08-05T04:28:30.602Z,16.20
2022-08-05T04:31:01.173Z,13.40
2022-08-05T04:33:54.574Z,13.00
2022-08-05T04:36:49.413Z,12.77
2022-08-05T04:39:06.495Z,18.80
2022-08-05T04:41:37.707Z,16.50
2022-08-05T04:44:30.200Z,17.43
2022-08-05T04:46:59.050Z,12.50
2022-08-05T04:49:38.883Z,15.10
2022-08-05T04:52:16.555Z,20.80
2022-08-05T04:54:44.123Z,17.73
2022-08-05T04:57:11.782Z,15.23
2022-08-05T04:59:40.837Z,16.23
2022-08-05T05:02:36.595Z,19.10
2022-08-05T05:05:02.288Z,10.70
2022-08-05T05:07:32.591Z,15.23
2022-08-05T05:10:04.554Z,14.13
2022-08-05T05:12:32.351Z,14.67
2022-08-05T05:15:00.011Z,12.20
2022-08-05T05:17:56.511Z,11.33
2022-08-05T05:20:28.805Z,12.83
2022-08-05T05:22:57.010Z,9.20
2022-08-05T05:25:33.042Z,12.43
2022-08-05T05:28:09.532Z,18.33
2022-08-05T05:30:37.261Z,15.40
2022-08-05T05:33:16.278Z,15.70
2022-08-05T05:35:47.718Z,14.10
2022-08-05T05:38:22.649Z,26.93
2022-08-05T05:40:56.066Z,13.63
2022-08-05T05:43:57.048Z,10.77
2022-08-05T05:46:17.406Z,10.60
2022-08-05T05:48:48.312Z,12.77
2022-08-05T05:51:25.521Z,15.10
2022-08-05T05:53:58.850Z,14.20
2022-08-05T05:56:34.451Z,9.50
2022-08-05T05:59:05.283Z,11.23
2022-08-05T06:01:37.910Z,12.47
2022-08-05T06:04:07.177Z,18.13
2022-08-05T06:06:36.450Z,12.53
2022-08-05T06:09:04.313Z,16.23
2022-08-05T06:11:31.967Z,12.63
2022-08-05T06:14:00.431Z,13.70
2022-08-05T06:16:36.721Z,10.80
2022-08-05T06:19:07.533Z,15.27
2022-08-05T06:21:42.914Z,13.60
2022-08-05T06:24:17.794Z,15.00
2022-08-05T06:26:53.719Z,10.07
2022-08-05T06:29:49.680Z,10.33
2022-08-05T06:32:24.836Z,11.10
2022-08-05T06:34:56.860Z,12.20
2022-08-05T06:37:55.536Z,11.17
2022-08-05T06:40:18.154Z,12.47
2022-08-05T06:42:52.267Z,10.90
2022-08-05T06:45:44.967Z,10.03
2022-08-05T06:48:37.133Z,11.77
2022-08-05T06:50:57.382Z,7.20
2022-08-05T06:53:27.828Z,11.50
2022-08-05T06:55:56.986Z,11.93
2022-08-05T06:58:35.368Z,9.60
2022-08-05T07:01:05.307Z,7.43
2022-08-05T07:03:33.577Z,6.23
2022-08-05T07:06:06.266Z,9.63
2022-08-05T07:08:47.928Z,11.20
2022-08-05T07:11:22.139Z,13.57
2022-08-05T07:14:20.793Z,9.40
2022-08-05T07:17:58.405Z,9.63
2022-08-05T07:20:31.350Z,8.00
2022-08-05T07:22:36.224Z,8.67
2022-08-05T07:25:21.760Z,8.67
2022-08-05T07:27:58.444Z,9.23
2022-08-05T07:30:32.226Z,7.50
2022-08-05T07:33:01.576Z,6.93
2022-08-05T07:36:03.735Z,8.40
2022-08-05T07:38:32.780Z,7.57
2022-08-05T07:42:06.764Z,7.97
2022-08-05T07:43:52.323Z,31.70
2022-08-05T07:46:25.055Z,9.30
2022-08-05T07:49:02.310Z,9.37
2022-08-05T07:51:37.421Z,11.13
2022-08-05T07:54:09.858Z,7.20
2022-08-05T07:57:01.841Z,8.17
2022-08-05T07:59:38.380Z,12.30
2022-08-05T08:02:10.586Z,8.77
2022-08-05T08:04:45.564Z,7.63
2022-08-05T08:07:13.476Z,14.83
2022-08-05T08:09:41.114Z,9.10
2022-08-05T08:12:29.682Z,7.13
2022-08-05T08:15:02.287Z,7.37
2022-08-05T08:17:31.257Z,9.13
2022-08-05T08:20:43.507Z,7.90
2022-08-05T08:22:51.608Z,8.17
2022-08-05T08:25:26.416Z,8.97
2022-08-05T08:28:05.689Z,8.87
2022-08-05T08:30:47.723Z,8.00
2022-08-05T08:33:19.143Z,7.93
2022-08-05T08:35:52.852Z,7.30
2022-08-05T08:38:35.132Z,8.40
2022-08-05T08:41:06.209Z,11.37
2022-08-05T08:45:20.397Z,7.90
2022-08-05T08:46:25.121Z,9.20
2022-08-05T08:49:06.155Z,13.77
2022-08-05T08:52:03.433Z,9.53
2022-08-05T08:54:32.480Z,11.70
2022-08-05T08:57:00.333Z,10.63
2022-08-05T08:59:33.498Z,10.60
2022-08-05T09:02:02.666Z,8.60
2022-08-05T09:04:36.339Z,14.63
2022-08-05T09:07:28.407Z,11.00
2022-08-05T09:09:57.298Z,14.03
2022-08-05T09:12:27.086Z,8.53
2022-08-05T09:15:06.145Z,19.17
2022-08-05T09:17:40.478Z,28.47
2022-08-05T09:20:10.154Z,24.90
2022-08-05T09:23:04.954Z,11.23
2022-08-05T09:26:01.205Z,19.87
2022-08-05T09:28:23.533Z,8.83
2022-08-05T09:30:56.096Z,10.47
2022-08-05T09:33:24.527Z,10.40
2022-08-05T09:36:11.903Z,7.93
2022-08-05T09:38:56.570Z,7.97
2022-08-05T09:41:24.869Z,10.17
2022-08-05T09:43:53.655Z,9.00
2022-08-05T09:46:28.828Z,10.10
2022-08-05T09:49:07.738Z,11.60
2022-08-05T09:51:45.092Z,8.53
2022-08-05T09:54:21.157Z,7.07
2022-08-05T09:57:01.171Z,8.07
2022-08-05T09:59:29.475Z,8.93
2022-08-05T10:02:04.597Z,8.63
2022-08-05T10:04:38.493Z,12.80
2022-08-05T10:07:20.405Z,8.73
2022-08-05T10:10:14.140Z,14.83
2022-08-05T10:12:49.300Z,7.70
2022-08-05T10:15:19.999Z,12.97
2022-08-05T10:18:22.780Z,10.60
2022-08-05T10:20:51.318Z,9.37
2022-08-05T10:23:34.431Z,10.70
2022-08-05T10:26:14.473Z,19.03
2022-08-05T10:28:43.648Z,12.53
2022-08-05T10:32:47.177Z,10.93
2022-08-05T10:34:04.147Z,8.00
2022-08-05T10:36:36.629Z,7.30
2022-08-05T10:39:10.405Z,12.63
2022-08-05T10:41:47.380Z,8.23
2022-08-05T10:44:18.144Z,19.00
2022-08-05T10:46:46.247Z,10.23
2022-08-05T10:49:27.447Z,12.03
2022-08-05T10:52:05.233Z,10.30
2022-08-05T10:54:56.224Z,18.00
2022-08-05T10:57:31.792Z,11.63
2022-08-05T11:00:19.081Z,8.07
2022-08-05T11:03:23.347Z,15.43
2022-08-05T11:06:15.266Z,61.17
2022-08-05T11:09:03.782Z,64.27
2022-08-05T11:11:53.043Z,15.93
2022-08-05T11:14:56.303Z,10.77
2022-08-05T11:17:57.478Z,9.53
2022-08-05T11:20:37.477Z,12.60
2022-08-05T11:23:25.827Z,6.83
2022-08-05T11:26:08.652Z,7.43
2022-08-05T11:28:44.794Z,7.17
2022-08-05T11:31:57.073Z,7.50
2022-08-05T11:34:37.273Z,6.17
2022-08-05T11:37:06.309Z,9.30
2022-08-05T11:40:00.195Z,6.10
2022-08-05T11:42:32.728Z,5.70
2022-08-05T11:45:22.954Z,8.60
2022-08-05T11:47:55.162Z,8.13
2022-08-05T11:50:23.002Z,5.10
2022-08-05T11:52:57.609Z,5.93
2022-08-05T11:55:32.140Z,5.80
2022-08-05T11:58:09.328Z,17.10
2022-08-05T12:00:41.262Z,5.37
2022-08-05T12:03:29.064Z,6.33
2022-08-05T12:06:06.565Z,8.43
2022-08-05T12:08:50.062Z,6.70
2022-08-05T12:11:20.424Z,5.47
2022-08-05T12:13:58.765Z,7.30
2022-08-05T12:16:33.299Z,5.17
2022-08-05T12:19:08.402Z,10.10
2022-08-05T12:22:01.718Z,4.80
2022-08-05T12:24:29.989Z,5.30
2022-08-05T12:26:57.814Z,6.50
2022-08-05T12:29:29.201Z,7.07
2022-08-05T12:32:09.752Z,8.57
2022-08-05T12:34:38.600Z,8.57
2022-08-05T12:37:10.778Z,7.90
2022-08-05T12:39:51.172Z,5.10
2022-08-05T12:42:21.287Z,5.00
2022-08-05T12:45:02.139Z,6.50
2022-08-05T12:47:30.947Z,8.67
2022-08-05T12:50:03.936Z,7.07
2022-08-05T12:52:39.230Z,10.90
2022-08-05T12:55:17.404Z,7.90
2022-08-05T12:58:38.469Z,6.97
2022-08-05T13:02:03.285Z,7.37
2022-08-05T13:03:32.474Z,7.07
2022-08-05T13:06:02.178Z,7.63
2022-08-05T13:08:30.100Z,8.97
2022-08-05T13:11:00.483Z,12.23
2022-08-05T13:14:06.266Z,6.07
2022-08-05T13:16:19.479Z,7.03
2022-08-05T13:25:52.343Z,6.10
2022-08-05T13:28:21.790Z,6.20
2022-08-05T13:30:51.103Z,9.27
2022-08-05T13:34:20.218Z,6.90
2022-08-05T13:36:09.512Z,15.53
2022-08-05T13:38:38.461Z,6.27
2022-08-05T13:41:10.541Z,5.67
2022-08-05T13:43:45.033Z,5.90
2022-08-05T13:46:43.772Z,9.73
2022-08-05T13:49:11.823Z,6.27
2022-08-05T13:51:41.783Z,7.10
2022-08-05T13:54:15.388Z,7.00
2022-08-05T13:56:45.282Z,6.60
2022-08-05T13:59:21.066Z,10.37
2022-08-05T14:01:59.235Z,7.10
2022-08-05T14:04:49.996Z,10.80
2022-08-05T14:07:55.705Z,10.17
2022-08-05T14:10:08.402Z,9.53
2022-08-05T14:12:36.945Z,7.27
2022-08-05T14:16:03.938Z,8.87
2022-08-05T14:17:55.052Z,13.30
2022-08-05T14:20:29.603Z,6.87
2022-08-05T14:22:57.616Z,8.50
2022-08-05T14:25:27.942Z,8.77
2022-08-05T14:27:56.618Z,5.30
2022-08-05T14:30:28.005Z,16.70
2022-08-05T14:32:56.928Z,8.00
2022-08-05T14:35:37.135Z,9.90
2022-08-05T14:38:06.710Z,7.73
2022-08-05T14:40:56.050Z,8.87
2022-08-05T14:44:02.133Z,8.80
2022-08-05T14:46:12.309Z,10.03
2022-08-05T14:48:39.955Z,9.27
2022-08-05T14:51:08.489Z,9.10
2022-08-05T14:56:24.468Z,9.87
2022-08-05T14:58:53.661Z,11.53
2022-08-05T15:01:26.215Z,6.80
2022-08-05T15:04:11.877Z,8.90
2022-08-05T15:06:40.462Z,11.87
2022-08-05T15:09:10.613Z,10.23
2022-08-05T15:11:52.693Z,8.70
2022-08-05T15:14:34.887Z,11.60
2022-08-05T15:17:44.660Z,9.80
2022-08-05T15:19:57.911Z,8.70
2022-08-05T15:22:26.663Z,10.63
2022-08-05T15:24:58.338Z,10.53
2022-08-05T15:27:26.122Z,10.40
2022-08-05T15:30:00.284Z,10.93
2022-08-05T15:32:29.045Z,9.43
2022-08-05T15:34:56.977Z,9.33
2022-08-05T15:38:34.146Z,9.73
2022-08-05T15:41:00.214Z,8.37
2022-08-05T15:43:12.637Z,9.40
2022-08-05T15:45:47.592Z,8.67
2022-08-05T15:48:15.614Z,12.13
2022-08-05T15:50:43.882Z,13.20
2022-08-05T15:53:13.542Z,11.50
2022-08-05T15:56:04.172Z,11.03
2022-08-05T15:58:35.401Z,16.97
2022-08-05T16:01:16.668Z,11.97
2022-08-05T16:03:48.175Z,16.40
2022-08-05T16:06:19.948Z,12.20
2022-08-05T16:08:50.903Z,13.20
2022-08-05T16:11:21.000Z,9.20
2022-08-05T16:14:08.980Z,9.73
2022-08-05T16:16:37.052Z,12.20
2022-08-05T16:19:04.831Z,8.17
2022-08-05T16:21:59.300Z,12.40
2022-08-05T16:24:39.555Z,11.77
2022-08-05T16:27:10.139Z,11.13
2022-08-05T16:29:47.465Z,8.57
2022-08-05T16:32:28.328Z,12.10
2022-08-05T16:34:57.502Z,12.63
2022-08-05T16:38:15.233Z,13.10
2022-08-05T16:40:28.713Z,12.47
2022-08-05T16:42:58.647Z,11.80
2022-08-05T16:46:04.010Z,15.97
2022-08-05T16:48:25.368Z,16.27
2022-08-05T16:50:54.325Z,13.10
2022-08-05T16:53:32.207Z,20.77
2022-08-05T16:56:11.748Z,13.80
2022-08-05T16:58:41.066Z,10.50
2022-08-05T17:01:10.337Z,12.77
2022-08-05T17:03:38.856Z,13.60
2022-08-05T17:06:07.055Z,15.57
2022-08-05T17:08:52.449Z,13.30
2022-08-05T17:11:23.707Z,12.20
2022-08-05T17:14:00.138Z,12.80
2022-08-05T17:16:36.608Z,11.70
2022-08-05T17:19:07.729Z,11.77
2022-08-05T17:21:39.340Z,10.50
2022-08-05T17:24:19.830Z,13.67
2022-08-05T17:26:57.178Z,8.00
2022-08-05T17:29:33.501Z,8.47
2022-08-05T17:32:11.839Z,10.90
2022-08-05T17:34:44.824Z,10.03
2022-08-05T17:37:41.200Z,6.00
2022-08-05T17:40:04.267Z,7.00
2022-08-05T17:42:33.077Z,8.07
2022-08-05T17:45:18.160Z,5.30
2022-08-05T17:47:54.506Z,4.37
2022-08-05T17:50:28.504Z,4.50
2022-08-05T17:52:59.059Z,7.40
2022-08-05T17:55:34.225Z,9.03
2022-08-05T17:58:02.759Z,5.37
2022-08-05T18:00:32.740Z,5.00
2022-08-05T18:03:00.598Z,7.93
2022-08-05T18:05:28.442Z,4.10
2022-08-05T18:08:03.582Z,7.00
2022-08-05T18:10:33.673Z,5.40
2022-08-05T18:13:02.204Z,4.60
2022-08-05T18:15:41.547Z,6.00
2022-08-05T18:18:14.209Z,10.53
2022-08-05T18:20:46.893Z,10.07
2022-08-05T18:23:15.032Z,10.90
2022-08-05T18:25:45.889Z,5.83
2022-08-05T18:28:16.208Z,5.60
2022-08-05T18:30:45.128Z,7.40
2022-08-05T18:33:14.467Z,6.30
2022-08-05T18:36:00.490Z,5.80
2022-08-05T18:38:31.805Z,9.90
2022-08-05T18:41:55.217Z,5.83
2022-08-05T18:43:48.951Z,7.33
2022-08-05T18:46:19.527Z,9.80
2022-08-05T18:48:51.950Z,7.80
2022-08-05T18:52:04.542Z,5.23
2022-08-05T18:54:25.572Z,10.47
2022-08-05T18:56:53.229Z,4.63
2022-08-05T18:59:42.841Z,5.10
2022-08-05T19:02:11.263Z,6.23
2022-08-05T19:05:02.375Z,5.97
2022-08-05T19:07:46.438Z,7.00
2022-08-05T19:10:14.914Z,7.00
2022-08-05T19:12:43.287Z,10.70
2022-08-05T19:15:25.152Z,24.97
2022-08-05T19:18:09.682Z,11.80
2022-08-05T19:20:41.578Z,17.30
2022-08-05T19:24:04.324Z,18.33
2022-08-05T19:26:01.708Z,8.00
2022-08-05T19:28:30.390Z,32.27
2022-08-05T19:30:57.983Z,13.00
2022-08-05T19:33:35.055Z,9.40
2022-08-05T19:36:06.956Z,6.33
2022-08-05T19:38:35.621Z,15.23
2022-08-05T19:41:06.773Z,7.53
2022-08-05T19:44:05.346Z,12.20
2022-08-05T19:46:30.011Z,7.63
2022-08-05T19:49:01.139Z,6.07
2022-08-05T19:52:05.420Z,5.90
2022-08-05T19:54:25.628Z,5.97
2022-08-05T19:56:59.652Z,4.30
2022-08-05T20:00:02.098Z,5.20
2022-08-05T20:02:17.592Z,5.27
2022-08-05T20:04:46.382Z,6.27
2022-08-05T20:07:45.873Z,9.97
2022-08-05T20:10:11.595Z,40.80
2022-08-05T20:12:48.284Z,96.13
2022-08-05T20:15:23.288Z,49.60
2022-08-05T20:18:10.441Z,108.90
2022-08-05T20:20:56.087Z,137.00
2022-08-05T20:23:39.432Z,58.37
2022-08-05T20:26:16.568Z,109.00
2022-08-05T20:28:45.856Z,143.40
2022-08-05T20:31:16.349Z,59.17
2022-08-05T20:33:45.586Z,95.30
2022-08-05T20:36:16.376Z,92.97
2022-08-05T20:38:54.068Z,39.77
2022-08-05T20:41:43.441Z,248.13
2022-08-05T20:44:18.808Z,157.10
2022-08-05T20:46:58.073Z,216.00
2022-08-05T20:49:26.471Z,310.77
2022-08-05T20:51:54.452Z,200.43
2022-08-05T20:54:25.545Z,190.23
2022-08-05T20:57:14.360Z,235.33
2022-08-05T21:00:10.561Z,75.20
2022-08-05T21:02:30.762Z,27.67
2022-08-05T21:04:58.725Z,31.97
2022-08-05T21:07:45.883Z,28.57
2022-08-05T21:10:19.270Z,9.03
2022-08-05T21:12:58.363Z,10.17
2022-08-05T21:15:35.751Z,9.17
2022-08-05T21:18:03.896Z,10.37
2022-08-05T21:20:33.550Z,6.20
2022-08-05T21:23:03.122Z,5.70
2022-08-05T21:25:33.865Z,5.50
2022-08-05T21:28:02.632Z,5.70
2022-08-05T21:30:31.389Z,6.40
2022-08-05T21:32:59.696Z,4.43
2022-08-05T21:35:55.779Z,5.93
2022-08-05T21:38:17.599Z,5.87
2022-08-05T21:40:46.875Z,6.57
2022-08-05T21:43:17.858Z,7.90
2022-08-05T21:45:57.787Z,45.63
2022-08-05T21:48:31.809Z,74.53
2022-08-05T21:51:00.188Z,112.47
2022-08-05T21:53:28.086Z,84.10
2022-08-05T21:56:09.599Z,292.10
2022-08-05T21:58:48.393Z,194.27
2022-08-05T22:01:26.051Z,132.80
2022-08-05T22:03:54.054Z,237.87
2022-08-05T22:06:34.734Z,296.30
2022-08-05T22:09:13.928Z,321.47
2022-08-05T22:11:46.750Z,61.60
2022-08-05T22:14:35.560Z,250.70
2022-08-05T22:17:07.033Z,464.37
2022-08-05T22:20:00.696Z,263.60
2022-08-05T22:22:27.441Z,200.70
2022-08-05T22:25:21.374Z,101.73
2022-08-05T22:28:11.185Z,353.20
2022-08-05T22:30:43.961Z,144.07
2022-08-05T22:33:56.570Z,244.50
2022-08-05T22:36:09.100Z,157.13
2022-08-05T22:38:37.818Z,44.83
2022-08-05T22:41:10.686Z,51.27
2022-08-05T22:43:41.204Z,35.47
2022-08-05T22:46:13.343Z,10.73
2022-08-05T22:48:43.839Z,21.47
2022-08-05T22:51:15.871Z,10.93
2022-08-05T22:53:55.133Z,8.60
2022-08-05T22:56:30.362Z,6.50
2022-08-05T22:59:03.189Z,7.10
2022-08-05T23:02:03.887Z,5.70
2022-08-05T23:04:33.555Z,11.60
2022-08-05T23:07:01.103Z,4.50
2022-08-05T23:09:57.579Z,6.20
2022-08-05T23:12:18.127Z,6.70
2022-08-05T23:14:47.227Z,6.90
2022-08-05T23:17:34.092Z,13.43
2022-08-05T23:20:05.960Z,5.10
2022-08-05T23:22:43.409Z,5.27
2022-08-05T23:25:17.169Z,5.00
2022-08-05T23:28:03.365Z,5.00
2022-08-05T23:30:40.437Z,7.70
2022-08-05T23:33:22.629Z,4.10
2022-08-05T23:36:00.591Z,6.07
2022-08-05T23:41:14.791Z,6.20
2022-08-05T23:44:04.647Z,6.90
2022-08-05T23:46:31.739Z,5.13
2022-08-05T23:49:02.129Z,6.33
2022-08-05T23:52:01.495Z,4.07
2022-08-05T23:54:34.203Z,4.60
2022-08-05T23:57:05.159Z,4.10
